Hot Springs Recreation Area, Montana
Current Conditions -  °F | °C
As of 5:53 PM on Tuesday 27 Jan 2015 (Local Time) from KDLN Reporting Station
Clear Clear  
Wind Chill: 41°   Ceiling: Unl
Heat Index: 47°   Visibility: 10mi
Dew Point: 28°   Wind: 13mph
Humidity: 48%   Direction: 230°SW
Pressure: 29.98"   Gusts: NA
Location:  45.36°N, 113.46°W
Report Text: KDLN 280053Z AUTO 23011KT 10SM CLR 08/M02 A2998 RMK AO2 SLP146 T00831022
Loading
Personal Weather Stations






























Interactive Weather Map New forecast layout! Learn more

10-Day Weather Forecast

Advertisements
Track Severe Weather on mobile